首页
METAR-TAF:

METAR-TAF

机场 :

阿卜杜勒-阿齐兹国王国际机场

吉达, 沙特阿拉伯

纬度: 21-42N, 经度: 039-11E, 海拔: 15米

当前天气观测

该预报发布于57分钟前的00:00 UTC
风速6节,风向北转西北
温度 27°C
湿度 66%
气压 1007 hPa
能见度10公里或以上
少量云层高于4000英尺

METAR: OEJN 270000Z 34006KT 9999 FEW040 27/20 Q1007 NOSIG

时间: 03:57 (00:57 UTC)

预报

该预报发布于1小时和57分钟前的23:00 UTC
预报有效从27日的 00点(UTC)到 28日的 06点(UTC)
风速8节,风向
能見度: 7000
少量云层高于4000英尺
成为
从 27日的 06点(UTC)到 27日的 08点(UTC)
风速16节,风向西北
成为
从 27日的 18点(UTC)到 27日的 20点(UTC)
风速10节,风向

TAF: OEJN 262300Z 2700/2806 01008KT 7000 FEW040 BECMG 2706/2708 32016KT BECMG 2718/2720 36010KT

超过4000个机场的气象观测和天气预报(METAR&TAF报告)。

可查询的气象台以黄色和红色小点在地图上表示。

将鼠标移到小点上方,可查看气象台名称。

然后点击查看天气观测和预报。

如需切换地图:点击带黑十字的绿色按钮放大地图;点击带横线的绿色按钮缩小地图;或者点击绿色箭头查看邻近地区的地图。


METAR-TAF: